createdAt,value
2022-11-20T00:04:02.370Z,212.40
2022-11-20T00:14:12.225Z,189.10
2022-11-20T00:34:26.333Z,213.10
2022-11-20T00:44:34.129Z,183.90
2022-11-20T00:54:41.281Z,180.60
2022-11-20T01:04:48.465Z,171.90
2022-11-20T01:14:55.778Z,173.40
2022-11-20T01:25:03.495Z,160.80
2022-11-20T01:35:08.275Z,164.50
2022-11-20T01:45:44.425Z,181.90
2022-11-20T01:55:55.448Z,190.60
2022-11-20T02:06:05.982Z,196.20
2022-11-20T02:16:11.733Z,192.90
2022-11-20T02:26:22.254Z,213.70
2022-11-20T02:36:32.520Z,200.00
2022-11-20T02:46:41.035Z,196.40
2022-11-20T02:56:47.986Z,192.90
2022-11-20T03:06:56.406Z,169.60
2022-11-20T03:17:04.380Z,145.00
2022-11-20T03:27:11.346Z,178.40
2022-11-20T03:37:18.353Z,174.80
2022-11-20T03:47:25.489Z,183.30
2022-11-20T03:57:32.764Z,170.70
2022-11-20T04:07:39.828Z,167.20
2022-11-20T04:17:46.316Z,159.20
2022-11-20T04:27:53.429Z,136.40
2022-11-20T04:38:00.698Z,145.80
2022-11-20T04:48:05.477Z,143.40
2022-11-20T04:58:13.215Z,143.00
2022-11-20T05:08:19.476Z,138.80
2022-11-20T05:18:27.196Z,144.30
2022-11-20T05:28:34.635Z,134.20
2022-11-20T05:38:42.224Z,136.90
2022-11-20T05:48:49.943Z,137.00
2022-11-20T05:58:58.271Z,110.20
2022-11-20T06:09:05.968Z,131.70
2022-11-20T06:19:13.313Z,144.70
2022-11-20T06:29:19.612Z,137.70
2022-11-20T06:39:26.788Z,137.30
2022-11-20T06:49:33.424Z,129.10
2022-11-20T07:09:46.266Z,147.40
2022-11-20T07:19:53.539Z,142.80
2022-11-20T07:30:00.504Z,162.10
2022-11-20T07:40:08.616Z,186.30
2022-11-20T07:50:16.610Z,179.90
2022-11-20T08:00:21.451Z,177.90
2022-11-20T08:10:29.283Z,193.20
2022-11-20T08:20:37.550Z,168.60
2022-11-20T08:30:45.419Z,186.00
2022-11-20T08:41:06.487Z,210.80
2022-11-20T08:51:15.386Z,225.50
2022-11-20T09:01:23.227Z,198.80
2022-11-20T09:11:30.545Z,185.60
2022-11-20T09:21:39.163Z,184.40
2022-11-20T09:31:46.482Z,107.50
2022-11-20T09:42:20.598Z,135.10
2022-11-20T09:52:43.633Z,128.70
2022-11-20T10:02:52.334Z,136.20
2022-11-20T10:13:02.469Z,118.00
2022-11-20T10:23:14.305Z,99.40
2022-11-20T10:33:23.393Z,76.80
2022-11-20T10:43:35.223Z,97.00
2022-11-20T10:53:43.440Z,76.00
2022-11-20T11:03:51.936Z,73.00
2022-11-20T11:14:06.384Z,74.10
2022-11-20T11:24:41.176Z,76.30
2022-11-20T11:35:00.581Z,74.50
2022-11-20T11:45:07.927Z,75.40
2022-11-20T11:55:21.712Z,77.20
2022-11-20T12:05:29.832Z,84.30
2022-11-20T12:15:37.944Z,81.80
2022-11-20T12:25:46.158Z,64.40
2022-11-20T12:35:58.268Z,99.10
2022-11-20T12:46:11.777Z,98.60
2022-11-20T12:56:19.603Z,101.50
2022-11-20T13:06:28.500Z,87.20
2022-11-20T13:16:38.327Z,83.10
2022-11-20T13:26:44.498Z,73.90
2022-11-20T13:36:57.184Z,53.40
2022-11-20T13:47:04.301Z,62.90
2022-11-20T13:57:12.772Z,81.40
2022-11-20T14:07:20.131Z,96.60
2022-11-20T14:17:32.929Z,111.10
2022-11-20T14:27:41.342Z,114.00
2022-11-20T14:37:49.234Z,116.40
2022-11-20T14:47:56.451Z,111.00
2022-11-20T14:58:01.324Z,82.80
2022-11-20T15:08:13.452Z,101.10
2022-11-20T15:18:21.687Z,147.80
2022-11-20T15:28:32.633Z,173.90
2022-11-20T15:38:40.453Z,184.40
2022-11-20T15:48:53.402Z,175.50
2022-11-20T15:59:00.557Z,165.00
2022-11-20T16:09:08.031Z,194.20
2022-11-20T16:19:15.525Z,212.70
2022-11-20T16:29:21.499Z,183.30
2022-11-20T16:39:28.361Z,191.40
2022-11-20T16:49:36.137Z,182.40
2022-11-20T16:59:42.911Z,168.80
2022-11-20T17:09:49.295Z,147.50
2022-11-20T17:19:56.667Z,218.00
2022-11-20T17:30:03.968Z,205.00
2022-11-20T17:40:10.201Z,201.10
2022-11-20T17:50:17.535Z,147.40
2022-11-20T18:00:25.327Z,131.30
2022-11-20T18:10:30.587Z,114.20
2022-11-20T18:20:40.036Z,92.60
2022-11-20T18:30:47.695Z,132.40
2022-11-20T18:40:54.919Z,162.10
2022-11-20T18:51:06.494Z,154.30
2022-11-20T19:01:13.995Z,135.50
2022-11-20T19:11:20.933Z,144.60
2022-11-20T19:21:28.615Z,85.30
2022-11-20T19:31:35.959Z,72.40
2022-11-20T19:41:44.072Z,64.60
2022-11-20T19:51:52.304Z,63.70
2022-11-20T20:01:59.774Z,94.10
2022-11-20T20:12:07.769Z,107.40
2022-11-20T20:22:15.003Z,121.50
2022-11-20T20:32:22.371Z,98.50
2022-11-20T20:42:30.745Z,112.30
2022-11-20T20:52:39.438Z,100.30
2022-11-20T21:02:46.476Z,74.00
2022-11-20T21:12:52.932Z,59.30
2022-11-20T21:23:00.045Z,51.80
2022-11-20T21:33:07.103Z,52.70
2022-11-20T21:43:14.299Z,53.90
2022-11-20T21:53:21.432Z,69.70
2022-11-20T22:03:28.721Z,76.60
2022-11-20T22:13:53.931Z,96.30
2022-11-20T22:24:01.651Z,91.50
2022-11-20T22:34:11.287Z,73.30
2022-11-20T22:44:16.582Z,57.80
2022-11-20T22:54:24.260Z,40.50
2022-11-20T23:04:31.811Z,53.80
2022-11-20T23:14:38.954Z,68.80
2022-11-20T23:24:46.471Z,56.40
2022-11-20T23:34:53.662Z,63.40
2022-11-20T23:44:59.805Z,72.60
2022-11-20T23:55:08.042Z,83.90
